Time;durP1;ratioP1;P1;durP2;ratioP2;P2;SDS_P1;SDS_P2;PMS_P1;PMS_P2;Temp;Humidity;BMP_temperature;BMP_pressure;BME280_temperature;BME280_humidity;BME280_pressure;Samples;Min_cycle;Max_cycle;Signal;HPM_P1;HPM_P2
2023/01/03 00:01:53;;;;;;;;;;;;;;;2.43;100.00;102403.72;5078144;28;20034;-76
2023/01/03 00:04:19;;;;;;;;;;;;;;;2.45;100.00;102406.34;5078474;28;19943;-76
2023/01/03 00:06:46;;;;;;;;;;;;;;;2.45;100.00;102403.72;5077066;28;19932;-76
2023/01/03 00:09:13;;;;;;;;;;;;;;;2.45;100.00;102401.09;5056385;28;19931;-76
2023/01/03 00:14:25;;;;;;;;;;;;;;;2.42;100.00;102408.91;5061041;28;20568;-76
2023/01/03 00:16:52;;;;;;;;;;;;;;;2.41;100.00;102399.31;5057232;28;19930;-75
2023/01/03 00:19:17;;;;;;;;;;;;;;;2.39;100.00;102412.38;5059669;28;19932;-76
2023/01/03 00:21:43;;;;;;;;;;;;;;;2.40;100.00;102418.50;5075676;28;19972;-75
2023/01/03 00:24:09;;;;;;;;;;;;;;;2.41;100.00;102415.00;5077448;28;19978;-75
2023/01/03 00:26:35;;;;;;;;;;;;;;;2.42;100.00;102427.22;5047655;28;19963;-75
2023/01/03 00:29:00;;;;;;;;;;;;;;;2.42;100.00;102422.00;5058862;28;20018;-75
2023/01/03 00:31:26;;;;;;;;;;;;;;;2.45;100.00;102427.25;5079336;28;19928;-75
2023/01/03 00:33:51;;;;;;;;;;;;;;;2.47;100.00;102430.78;5046787;28;19935;-76
2023/01/03 00:36:17;;;;;;;;;;;;;;;2.49;100.00;102426.44;5060890;28;20064;-75
2023/01/03 00:38:42;;;;;;;;;;;;;;;2.52;100.00;102436.97;5057962;28;19938;-75
2023/01/03 00:41:08;;;;;;;;;;;;;;;2.56;100.00;102443.13;5058827;28;20570;-75
2023/01/03 00:43:33;;;;;;;;;;;;;;;2.59;100.00;102440.53;5078612;28;20046;-75
2023/01/03 00:45:59;;;;;;;;;;;;;;;2.63;100.00;102437.09;5059834;28;20372;-75
2023/01/03 00:48:24;;;;;;;;;;;;;;;2.66;100.00;102436.28;5076529;28;20562;-75
2023/01/03 00:50:49;;;;;;;;;;;;;;;2.68;100.00;102434.53;5056514;28;19976;-75
2023/01/03 00:53:15;;;;;;;;;;;;;;;2.70;100.00;102438.06;5078485;28;20694;-75
2023/01/03 00:55:40;;;;;;;;;;;;;;;2.72;100.00;102431.09;5063512;28;20319;-75
2023/01/03 00:58:05;;;;;;;;;;;;;;;2.71;100.00;102431.97;5082110;28;19936;-75
2023/01/03 01:00:31;;;;;;;;;;;;;;;2.71;100.00;102431.97;5083812;28;19932;-75
2023/01/03 01:02:56;;;;;;;;;;;;;;;2.70;100.00;102438.06;5080997;28;19939;-76
2023/01/03 01:05:22;;;;;;;;;;;;;;;2.70;100.00;102443.28;5083993;28;19934;-76
2023/01/03 01:07:47;;;;;;;;;;;;;;;2.68;100.00;102438.03;5082997;28;21622;-75
2023/01/03 01:10:12;;;;;;;;;;;;;;;2.68;100.00;102439.78;5083851;28;19932;-75
2023/01/03 01:12:38;;;;;;;;;;;;;;;2.69;100.00;102446.75;5082883;28;20190;-75
2023/01/03 01:15:04;;;;;;;;;;;;;;;2.68;100.00;102440.63;5065110;28;21618;-75
2023/01/03 01:17:30;;;;;;;;;;;;;;;2.66;100.00;102442.38;5079917;28;19928;-75
2023/01/03 01:19:55;;;;;;;;;;;;;;;2.67;100.00;102445.88;5080683;28;20315;-76
2023/01/03 01:22:20;;;;;;;;;;;;;;;2.66;100.00;102454.59;5049988;28;19932;-75
2023/01/03 01:24:46;;;;;;;;;;;;;;;2.65;100.00;102450.19;5062785;28;20410;-75
2023/01/03 01:27:11;;;;;;;;;;;;;;;2.65;100.00;102447.56;5080293;28;20066;-76
2023/01/03 01:29:37;;;;;;;;;;;;;;;2.65;100.00;102453.69;5043238;28;20061;-75
2023/01/03 01:32:02;;;;;;;;;;;;;;;2.66;100.00;102463.28;5064440;28;19963;-75
2023/01/03 01:34:28;;;;;;;;;;;;;;;2.66;100.00;102468.53;5080495;28;19928;-75
2023/01/03 01:36:53;;;;;;;;;;;;;;;2.68;100.00;102473.78;5058706;28;20009;-76
2023/01/03 01:39:20;;;;;;;;;;;;;;;2.69;100.00;102467.69;5082086;28;19999;-75
2023/01/03 01:44:40;;;;;;;;;;;;;;;2.71;100.00;102471.19;5069934;28;19928;-76
2023/01/03 01:47:10;;;;;;;;;;;;;;;2.74;100.00;102479.09;5065897;28;20488;-75
2023/01/03 01:49:35;;;;;;;;;;;;;;;2.73;100.00;102474.72;5067121;28;20002;-75
2023/01/03 01:52:01;;;;;;;;;;;;;;;2.72;100.00;102478.19;5058869;28;20298;-75
2023/01/03 01:54:26;;;;;;;;;;;;;;;2.73;100.00;102474.72;5074076;28;19924;-76
2023/01/03 01:56:51;;;;;;;;;;;;;;;2.72;100.00;102475.56;5058103;28;19986;-75
2023/01/03 01:59:17;;;;;;;;;;;;;;;2.70;100.00;102479.91;5062252;28;19923;-75
2023/01/03 02:01:43;;;;;;;;;;;;;;;2.66;100.00;102484.22;5084369;28;19939;-75
2023/01/03 02:04:31;;;;;;;;;;;;;;;2.63;100.00;102494.66;5083119;28;19966;-75
2023/01/03 02:06:57;;;;;;;;;;;;;;;2.60;100.00;102498.94;5062649;28;19935;-75
2023/01/03 02:09:22;;;;;;;;;;;;;;;2.55;100.00;102497.13;5082626;28;20328;-75
2023/01/03 02:15:01;;;;;;;;;;;;;;;2.46;100.00;102493.50;5064819;28;19931;-75
2023/01/03 02:17:26;;;;;;;;;;;;;;;2.43;100.00;102491.72;5077422;28;20350;-75
2023/01/03 02:19:51;;;;;;;;;;;;;;;2.39;100.00;102490.78;5061461;28;19978;-76
2023/01/03 02:22:23;;;;;;;;;;;;;;;2.35;100.00;102488.13;5078672;28;19953;-75
2023/01/03 02:24:57;;;;;;;;;;;;;;;2.30;100.00;102485.44;5013433;28;1820635;-75
2023/01/03 02:27:41;;;;;;;;;;;;;;;2.27;100.00;102491.50;5079232;28;19924;-76
2023/01/03 02:30:10;;;;;;;;;;;;;;;2.25;100.00;102497.53;5082560;28;19934;-75
2023/01/03 02:32:37;;;;;;;;;;;;;;;2.23;100.00;102497.50;5065315;28;19968;-75
2023/01/03 02:35:03;;;;;;;;;;;;;;;2.22;100.00;102497.50;5066113;28;19920;-75
2023/01/03 02:37:42;;;;;;;;;;;;;;;2.19;100.00;102506.19;5067270;28;19931;-75
2023/01/03 02:40:17;;;;;;;;;;;;;;;2.16;100.00;102503.50;5063369;28;19968;-75
2023/01/03 02:43:00;;;;;;;;;;;;;;;2.12;100.00;102512.16;5040130;28;20482;-76
2023/01/03 02:45:45;;;;;;;;;;;;;;;2.08;100.00;102510.34;5075081;28;20019;-75
2023/01/03 02:48:23;;;;;;;;;;;;;;;2.06;100.00;102512.06;5077157;28;20142;-75
2023/01/03 02:50:49;;;;;;;;;;;;;;;2.03;100.00;102512.88;5075942;28;20053;-75
2023/01/03 02:53:20;;;;;;;;;;;;;;;2.01;100.00;102505.00;5054945;28;19939;-76
2023/01/03 02:55:46;;;;;;;;;;;;;;;2.01;100.00;102509.34;5059662;28;19924;-75
2023/01/03 02:58:14;;;;;;;;;;;;;;;2.00;100.00;102508.47;5075072;28;19932;-75
2023/01/03 03:00:42;;;;;;;;;;;;;;;2.01;100.00;102498.88;5081714;28;20057;-75
2023/01/03 03:03:09;;;;;;;;;;;;;;;2.03;100.00;102502.44;5060822;28;19926;-75
2023/01/03 03:05:49;;;;;;;;;;;;;;;2.02;100.00;102500.69;5059665;28;19943;-75
2023/01/03 03:08:15;;;;;;;;;;;;;;;1.99;100.00;102496.28;5043496;28;19978;-76
2023/01/03 03:13:28;;;;;;;;;;;;;;;1.98;100.00;102499.75;5063581;28;20006;-76
2023/01/03 03:15:53;;;;;;;;;;;;;;;1.98;100.00;102504.97;5059707;28;19928;-75
2023/01/03 03:18:42;;;;;;;;;;;;;;;1.97;100.00;102497.09;5080437;28;20273;-75
2023/01/03 03:26:38;;;;;;;;;;;;;;;1.93;100.00;102501.38;5061404;28;19924;-75
2023/01/03 03:29:16;;;;;;;;;;;;;;;1.91;100.00;102495.28;5075006;28;19990;-75
2023/01/03 03:31:42;;;;;;;;;;;;;;;1.90;100.00;102502.22;5029991;28;20473;-75
2023/01/03 03:34:18;;;;;;;;;;;;;;;1.89;100.00;102500.47;5055793;28;19928;-74
2023/01/03 03:36:49;;;;;;;;;;;;;;;1.89;100.00;102497.84;5072281;28;20001;-75
2023/01/03 03:45:10;;;;;;;;;;;;;;;1.84;100.00;102496.88;5072336;28;20230;-75
2023/01/03 03:47:41;;;;;;;;;;;;;;;1.86;100.00;102494.31;5051685;28;19977;-75
2023/01/03 03:50:16;;;;;;;;;;;;;;;1.88;100.00;102489.97;5072464;28;21529;-75
2023/01/03 03:52:42;;;;;;;;;;;;;;;1.93;100.00;102495.28;5060984;28;19928;-75
2023/01/03 03:55:13;;;;;;;;;;;;;;;1.97;100.00;102495.34;5043366;28;19928;-75
2023/01/03 03:57:39;;;;;;;;;;;;;;;1.98;100.00;102494.53;5053697;28;19928;-75
2023/01/03 04:00:08;;;;;;;;;;;;;;;2.01;100.00;102486.72;5058625;28;19928;-75
2023/01/03 04:02:33;;;;;;;;;;;;;;;2.02;100.00;102493.69;5054275;28;19924;-75
2023/01/03 04:04:59;;;;;;;;;;;;;;;2.00;100.00;102487.56;5057943;28;19935;-75
2023/01/03 04:07:25;;;;;;;;;;;;;;;1.98;100.00;102486.69;5054818;28;19973;-75
2023/01/03 04:09:50;;;;;;;;;;;;;;;1.97;100.00;102490.13;5054835;28;20069;-75
2023/01/03 04:12:15;;;;;;;;;;;;;;;1.95;100.00;102496.19;5074502;28;21070;-75
2023/01/03 04:14:41;;;;;;;;;;;;;;;1.92;100.00;102490.91;5054967;28;20823;-75
2023/01/03 04:17:06;;;;;;;;;;;;;;;1.88;100.00;102488.25;5055557;28;19950;-75
2023/01/03 04:19:32;;;;;;;;;;;;;;;1.86;100.00;102495.16;5073731;28;20185;-75
2023/01/03 04:21:57;;;;;;;;;;;;;;;1.87;100.00;102502.13;5073050;28;20408;-75
2023/01/03 04:24:23;;;;;;;;;;;;;;;1.87;100.00;102496.06;5065548;28;19923;-75
2023/01/03 04:26:48;;;;;;;;;;;;;;;1.88;100.00;102509.16;5045144;28;20328;-75
2023/01/03 04:29:13;;;;;;;;;;;;;;;1.90;100.00;102511.78;5077608;28;20291;-75
2023/01/03 04:31:39;;;;;;;;;;;;;;;1.94;100.00;102505.75;5073048;28;20111;-75
2023/01/03 04:34:04;;;;;;;;;;;;;;;1.97;100.00;102511.03;5042835;28;20034;-75
2023/01/03 04:36:30;;;;;;;;;;;;;;;2.01;100.00;102509.34;5052202;28;19924;-75
2023/01/03 04:38:55;;;;;;;;;;;;;;;2.05;100.00;102512.91;5052441;28;19981;-75
2023/01/03 04:41:21;;;;;;;;;;;;;;;2.08;100.00;102513.84;5055532;28;19970;-75
2023/01/03 04:44:02;;;;;;;;;;;;;;;2.12;100.00;102514.78;5072370;28;19912;-75
2023/01/03 04:46:28;;;;;;;;;;;;;;;2.15;100.00;102515.69;5053217;28;19935;-75
2023/01/03 04:48:53;;;;;;;;;;;;;;;2.15;100.00;102520.03;5054504;28;19955;-75
2023/01/03 04:51:19;;;;;;;;;;;;;;;2.16;100.00;102519.19;5070874;28;19932;-75
2023/01/03 04:53:44;;;;;;;;;;;;;;;2.18;100.00;102522.69;5055003;28;19924;-75
2023/01/03 04:56:09;;;;;;;;;;;;;;;2.17;100.00;102520.94;5071739;28;20054;-75
2023/01/03 04:58:35;;;;;;;;;;;;;;;2.16;100.00;102517.47;5074986;28;19928;-75
2023/01/03 05:01:02;;;;;;;;;;;;;;;2.15;100.00;102512.19;5058997;28;19932;-75
2023/01/03 05:03:28;;;;;;;;;;;;;;;2.13;100.00;102511.31;5059808;28;19932;-75
2023/01/03 05:05:57;;;;;;;;;;;;;;;2.11;100.00;102515.59;5077954;28;20095;-75
2023/01/03 05:08:23;;;;;;;;;;;;;;;2.09;100.00;102506.88;5044030;28;19933;-75
2023/01/03 05:10:50;;;;;;;;;;;;;;;2.06;100.00;102514.66;5058381;28;19936;-75
2023/01/03 05:13:15;;;;;;;;;;;;;;;2.01;100.00;102512.84;5077824;28;20020;-75
2023/01/03 05:15:40;;;;;;;;;;;;;;;1.98;100.00;102512.81;5075552;28;20450;-74
2023/01/03 05:18:06;;;;;;;;;;;;;;;1.95;100.00;102523.19;5057465;28;19939;-75
2023/01/03 05:26:04;;;;;;;;;;;;;;;1.82;100.00;102510.75;5071818;28;19928;-75
2023/01/03 05:28:29;;;;;;;;;;;;;;;1.77;100.00;102510.69;5070548;28;21646;-75
2023/01/03 05:30:56;;;;;;;;;;;;;;;1.74;100.00;102521.94;5050588;28;20401;-75
2023/01/03 05:33:21;;;;;;;;;;;;;;;1.70;100.00;102514.91;5072712;28;19928;-75
2023/01/03 05:35:47;;;;;;;;;;;;;;;1.64;100.00;102520.03;5072980;28;19958;-75
2023/01/03 05:38:12;;;;;;;;;;;;;;;1.61;100.00;102519.97;5069911;28;20030;-75
2023/01/03 05:40:38;;;;;;;;;;;;;;;1.55;100.00;102522.44;5072602;28;20006;-75
2023/01/03 05:43:03;;;;;;;;;;;;;;;1.53;100.00;102521.56;5055279;28;19924;-75
2023/01/03 05:45:29;;;;;;;;;;;;;;;1.49;100.00;102523.22;5079339;28;19974;-75
2023/01/03 05:47:57;;;;;;;;;;;;;;;1.46;100.00;102526.66;5074383;28;19935;-75
2023/01/03 05:50:23;;;;;;;;;;;;;;;1.44;100.00;102530.97;5074095;28;21005;-75
2023/01/03 05:52:48;;;;;;;;;;;;;;;1.41;100.00;102523.06;5060944;28;19928;-75
2023/01/03 05:55:14;;;;;;;;;;;;;;;1.40;100.00;102528.25;5074857;28;19924;-75
2023/01/03 05:57:39;;;;;;;;;;;;;;;1.37;100.00;102521.25;5042464;28;19935;-75
2023/01/03 06:00:05;;;;;;;;;;;;;;;1.33;100.00;102522.03;5055236;28;19932;-75
2023/01/03 06:02:30;;;;;;;;;;;;;;;1.31;100.00;102524.59;5077454;28;20354;-75
2023/01/03 06:04:55;;;;;;;;;;;;;;;1.30;100.00;102524.59;5057921;28;19931;-75
2023/01/03 06:07:21;;;;;;;;;;;;;;;1.27;100.00;102521.91;5058288;28;19967;-75
2023/01/03 06:09:46;;;;;;;;;;;;;;;1.25;100.00;102521.00;5082190;28;20326;-75
2023/01/03 06:12:12;;;;;;;;;;;;;;;1.22;100.00;102519.22;5061957;28;19958;-75
2023/01/03 06:14:37;;;;;;;;;;;;;;;1.20;100.00;102515.69;5064721;28;20124;-75
2023/01/03 06:19:47;;;;;;;;;;;;;;;1.17;100.00;102532.16;5077408;28;20014;-75
2023/01/03 06:22:15;;;;;;;;;;;;;;;1.16;100.00;102534.75;5077148;28;20022;-75
2023/01/03 06:24:40;;;;;;;;;;;;;;;1.14;100.00;102524.25;5074961;28;19938;-75
2023/01/03 06:27:05;;;;;;;;;;;;;;;1.08;100.00;102527.63;5056416;28;19967;-74
2023/01/03 06:29:31;;;;;;;;;;;;;;;1.04;100.00;102535.38;5076021;28;20152;-75
2023/01/03 06:31:56;;;;;;;;;;;;;;;1.00;100.00;102530.91;5074262;28;19924;-75
2023/01/03 06:34:22;;;;;;;;;;;;;;;0.98;100.00;102535.22;5075727;28;19951;-74
2023/01/03 06:36:47;;;;;;;;;;;;;;;0.96;100.00;102531.72;5076273;28;20417;-75
2023/01/03 06:39:12;;;;;;;;;;;;;;;0.93;100.00;102536.00;5072255;28;20477;-74
2023/01/03 06:41:38;;;;;;;;;;;;;;;0.91;100.00;102537.69;5074881;28;21626;-75
2023/01/03 06:44:03;;;;;;;;;;;;;;;0.89;100.00;102533.28;5055881;28;20408;-74
2023/01/03 06:54:44;;;;;;;;;;;;;;;0.83;100.00;102547.09;5057308;28;19950;-75
2023/01/03 06:57:10;;;;;;;;;;;;;;;0.82;100.00;102540.13;5057913;28;20387;-75
2023/01/03 06:59:36;;;;;;;;;;;;;;;0.82;100.00;102545.34;5075836;27;20421;-74
2023/01/03 07:02:01;;;;;;;;;;;;;;;0.79;100.00;102548.75;5061074;28;19977;-75
2023/01/03 07:04:27;;;;;;;;;;;;;;;0.79;100.00;102553.06;5059292;28;19927;-74
2023/01/03 07:06:52;;;;;;;;;;;;;;;0.77;100.00;102555.63;5078369;28;19924;-75
2023/01/03 07:09:18;;;;;;;;;;;;;;;0.75;100.00;102562.53;5061030;28;20340;-74
2023/01/03 07:11:43;;;;;;;;;;;;;;;0.73;100.00;102558.13;5060609;28;19924;-75
2023/01/03 07:14:09;;;;;;;;;;;;;;;0.71;100.00;102558.09;5052665;28;19929;-74
2023/01/03 07:16:37;;;;;;;;;;;;;;;0.69;100.00;102557.19;5059909;28;20378;-75
2023/01/03 07:19:03;;;;;;;;;;;;;;;0.67;100.00;102559.75;5046916;28;19997;-74
2023/01/03 07:21:29;;;;;;;;;;;;;;;0.68;100.00;102558.03;5062197;28;20435;-74
2023/01/03 07:23:55;;;;;;;;;;;;;;;0.65;100.00;102561.44;5057157;28;20584;-74
2023/01/03 07:26:20;;;;;;;;;;;;;;;0.65;100.00;102557.97;5058346;28;19928;-75
2023/01/03 07:28:46;;;;;;;;;;;;;;;0.65;100.00;102555.38;5071873;28;19940;-74
2023/01/03 07:31:11;;;;;;;;;;;;;;;0.66;100.00;102554.53;5041691;28;21608;-74
2023/01/03 07:33:38;;;;;;;;;;;;;;;0.64;100.00;102558.78;5056871;28;20658;-75
2023/01/03 07:36:07;;;;;;;;;;;;;;;0.64;100.00;102564.91;5060655;28;19935;-74
2023/01/03 07:38:32;;;;;;;;;;;;;;;0.62;100.00;102561.38;5057350;28;19971;-75
2023/01/03 07:40:58;;;;;;;;;;;;;;;0.62;100.00;102557.88;5053585;28;20548;-74
2023/01/03 07:43:36;;;;;;;;;;;;;;;0.62;100.00;102558.78;5054864;28;21752;-75
2023/01/03 07:46:05;;;;;;;;;;;;;;;0.62;100.00;102561.38;5075253;28;19928;-74
2023/01/03 07:48:30;;;;;;;;;;;;;;;0.61;100.00;102566.56;5044093;28;19931;-75
2023/01/03 07:50:57;;;;;;;;;;;;;;;0.60;100.00;102563.06;5072209;28;20647;-75
2023/01/03 07:53:22;;;;;;;;;;;;;;;0.59;100.00;102569.13;5075640;28;19928;-79
2023/01/03 07:55:47;;;;;;;;;;;;;;;0.61;100.00;102566.56;5045894;28;20445;-75
2023/01/03 07:58:13;;;;;;;;;;;;;;;0.59;100.00;102560.44;5079965;28;19934;-76
2023/01/03 08:00:39;;;;;;;;;;;;;;;0.59;100.00;102565.66;5079400;28;21983;-76
2023/01/03 08:03:04;;;;;;;;;;;;;;;0.60;100.00;102568.28;5074816;28;19959;-76
2023/01/03 08:05:30;;;;;;;;;;;;;;;0.61;100.00;102567.41;5057882;28;20286;-76
2023/01/03 08:07:55;;;;;;;;;;;;;;;0.59;100.00;102565.66;5075784;28;19971;-76
2023/01/03 08:13:17;;;;;;;;;;;;;;;0.59;100.00;102563.03;5076394;28;20036;-76
2023/01/03 08:15:46;;;;;;;;;;;;;;;0.56;100.00;102563.84;5075314;28;19953;-76
2023/01/03 08:18:15;;;;;;;;;;;;;;;0.54;100.00;102581.16;5076313;28;20512;-76
2023/01/03 08:20:41;;;;;;;;;;;;;;;0.49;100.00;102572.38;5047679;28;19924;-75
2023/01/03 08:23:06;;;;;;;;;;;;;;;0.43;100.00;102574.81;5057030;28;19928;-76
2023/01/03 08:25:32;;;;;;;;;;;;;;;0.38;100.00;102577.31;5059595;28;19949;-76
2023/01/03 08:27:57;;;;;;;;;;;;;;;0.32;100.00;102583.25;5032597;28;19932;-76
2023/01/03 08:30:23;;;;;;;;;;;;;;;0.29;100.00;102577.97;5055889;28;21458;-76
2023/01/03 08:32:48;;;;;;;;;;;;;;;0.26;100.00;102588.28;5058920;28;21502;-76
2023/01/03 08:35:15;;;;;;;;;;;;;;;0.24;100.00;102590.88;5059900;28;19965;-76
2023/01/03 08:37:41;;;;;;;;;;;;;;;0.24;100.00;102596.09;5078854;28;19984;-77
2023/01/03 08:40:06;;;;;;;;;;;;;;;0.23;100.00;102590.84;5057988;28;19938;-76
2023/01/03 08:42:32;;;;;;;;;;;;;;;0.21;100.00;102590.78;5069658;28;19920;-77
2023/01/03 08:44:59;;;;;;;;;;;;;;;0.22;100.00;102589.94;5072623;28;19928;-76
2023/01/03 08:47:24;;;;;;;;;;;;;;;0.23;100.00;102596.03;5058978;28;20523;-77
2023/01/03 08:49:49;;;;;;;;;;;;;;;0.23;100.00;102593.44;5061142;28;20694;-76
2023/01/03 08:52:15;;;;;;;;;;;;;;;0.26;100.00;102588.28;5060623;28;22200;-76
2023/01/03 08:54:40;;;;;;;;;;;;;;;0.28;100.00;102593.56;5057177;28;19959;-76
2023/01/03 08:57:06;;;;;;;;;;;;;;;0.29;100.00;102592.69;5072521;28;19954;-77
2023/01/03 08:59:31;;;;;;;;;;;;;;;0.30;100.00;102591.84;5075397;28;19943;-76
2023/01/03 09:01:58;;;;;;;;;;;;;;;0.33;100.00;102600.63;5074815;28;19970;-76
2023/01/03 09:04:23;;;;;;;;;;;;;;;0.38;100.00;102601.63;5078004;28;19928;-77
2023/01/03 09:06:49;;;;;;;;;;;;;;;0.40;100.00;102597.34;5075203;28;20025;-76
2023/01/03 09:09:14;;;;;;;;;;;;;;;0.44;100.00;102595.69;5040206;28;19931;-76
2023/01/03 09:11:40;;;;;;;;;;;;;;;0.49;100.00;102591.47;5076265;28;19932;-76
2023/01/03 09:14:05;;;;;;;;;;;;;;;0.54;100.00;102591.59;5076010;28;19932;-76
2023/01/03 09:16:30;;;;;;;;;;;;;;;0.58;100.00;102593.44;5062532;28;19928;-75
2023/01/03 09:18:56;;;;;;;;;;;;;;;0.63;100.00;102589.22;5083217;28;19938;-76
2023/01/03 09:21:22;;;;;;;;;;;;;;;0.68;100.00;102591.94;5062339;28;19951;-76
2023/01/03 09:23:47;;;;;;;;;;;;;;;0.74;100.00;102584.25;5047644;28;19920;-76
2023/01/03 09:26:13;;;;;;;;;;;;;;;0.80;100.00;102586.13;5043031;28;19935;-76
2023/01/03 09:28:38;;;;;;;;;;;;;;;0.85;100.00;102583.59;5052051;28;19992;-76
2023/01/03 09:31:04;;;;;;;;;;;;;;;0.88;100.00;102579.34;5078436;28;19975;-77
2023/01/03 09:33:29;;;;;;;;;;;;;;;0.93;100.00;102572.50;5078811;28;20022;-76
2023/01/03 09:35:54;;;;;;;;;;;;;;;0.97;100.00;102567.38;5061631;28;20032;-76
2023/01/03 09:38:20;;;;;;;;;;;;;;;1.04;100.00;102571.88;5057265;28;20408;-76
2023/01/03 09:40:46;;;;;;;;;;;;;;;1.09;100.00;102562.41;5046702;28;20001;-76
2023/01/03 09:43:12;;;;;;;;;;;;;;;1.15;100.00;102567.75;5076568;28;20139;-76
2023/01/03 09:45:39;;;;;;;;;;;;;;;1.22;100.00;102561.81;5059160;28;19927;-77
2023/01/03 09:48:04;;;;;;;;;;;;;;;1.29;100.00;102559.34;5077858;28;19932;-77
2023/01/03 09:50:34;;;;;;;;;;;;;;;1.34;100.00;102560.34;5057830;28;20280;-76
2023/01/03 10:04:05;;;;;;;;;;;;;;;1.62;100.00;102568.72;5076331;28;19935;-76
2023/01/03 10:06:34;;;;;;;;;;;;;;;1.69;100.00;102567.97;5062768;28;20022;-77
2023/01/03 10:08:59;;;;;;;;;;;;;;;1.74;100.00;102566.34;5042332;28;20394;-75
2023/01/03 10:11:31;;;;;;;;;;;;;;;1.82;100.00;102555.16;5077156;28;19924;-76
2023/01/03 10:14:03;;;;;;;;;;;;;;;1.88;100.00;102550.94;5057628;28;20331;-76
2023/01/03 10:16:28;;;;;;;;;;;;;;;1.96;100.00;102548.44;5076905;28;19956;-76
2023/01/03 10:18:57;;;;;;;;;;;;;;;2.03;100.00;102549.47;5055128;28;20264;-76
2023/01/03 10:21:41;;;;;;;;;;;;;;;2.11;100.00;102549.56;5077879;28;19931;-76
2023/01/03 10:24:15;;;;;;;;;;;;;;;2.19;100.00;102542.78;5068827;28;19928;-76
2023/01/03 10:26:41;;;;;;;;;;;;;;;2.28;100.00;102534.19;5032935;28;20530;-76
2023/01/03 10:29:06;;;;;;;;;;;;;;;2.38;100.00;102529.97;5066774;28;20463;-77
2023/01/03 10:31:35;;;;;;;;;;;;;;;2.47;100.00;102527.53;5047994;28;20314;-77
2023/01/03 10:34:00;;;;;;;;;;;;;;;2.57;100.00;102529.41;5048027;28;19935;-77
2023/01/03 10:36:26;;;;;;;;;;;;;;;2.65;100.00;102512.94;5041272;28;19939;-77
2023/01/03 10:39:01;;;;;;;;;;;;;;;2.74;100.00;102514.81;5048797;28;21501;-77
2023/01/03 10:41:33;;;;;;;;;;;;;;;2.82;100.00;102508.84;5031016;28;20432;-78
2023/01/03 10:43:59;;;;;;;;;;;;;;;2.92;100.00;102519.44;5062492;28;22236;-77
2023/01/03 10:46:26;;;;;;;;;;;;;;;3.01;100.00;102521.28;5045924;28;20160;-77
2023/01/03 10:48:52;;;;;;;;;;;;;;;3.09;100.00;102517.03;5066655;28;19929;-77
2023/01/03 10:51:44;;;;;;;;;;;;;;;3.19;100.00;102513.69;5048639;28;20021;-77
2023/01/03 10:54:11;;;;;;;;;;;;;;;3.29;100.00;102503.31;5066009;28;20013;-77
2023/01/03 10:56:36;;;;;;;;;;;;;;;3.37;100.00;102502.53;5048096;28;20444;-77
2023/01/03 10:59:11;;;;;;;;;;;;;;;3.45;100.00;102502.63;5046817;28;19928;-77
2023/01/03 11:01:37;;;;;;;;;;;;;;;3.51;100.00;102512.28;5032415;28;19964;-76
2023/01/03 11:04:08;;;;;;;;;;;;;;;3.55;100.00;102508.84;5047749;28;19928;-77
2023/01/03 11:06:35;;;;;;;;;;;;;;;3.59;100.00;102510.63;5046871;28;19928;-77
2023/01/03 11:09:04;;;;;;;;;;;;;;;3.64;100.00;102503.72;5036342;28;20413;-77
2023/01/03 11:11:34;;;;;;;;;;;;;;;3.68;100.00;102512.47;5048949;28;19971;-76
2023/01/03 11:14:08;;;;;;;;;;;;;;;3.72;100.00;102509.03;5070824;28;19932;-77
2023/01/03 11:16:33;;;;;;;;;;;;;;;3.74;100.00;102502.06;5072272;28;19946;-76
2023/01/03 11:19:00;;;;;;;;;;;;;;;3.78;100.00;102502.97;5068966;28;19928;-77
2023/01/03 11:21:27;;;;;;;;;;;;;;;3.82;100.00;102507.38;5069520;28;20309;-77
2023/01/03 11:23:59;;;;;;;;;;;;;;;3.84;100.00;102510.88;5054326;28;19937;-77
2023/01/03 11:26:39;;;;;;;;;;;;;;;3.87;100.00;102507.41;5064797;28;20156;-77
2023/01/03 11:29:11;;;;;;;;;;;;;;;3.90;100.00;102494.34;5067468;28;19928;-77
2023/01/03 11:32:06;;;;;;;;;;;;;;;3.91;100.00;102496.97;5072205;28;20578;-77
2023/01/03 11:34:51;;;;;;;;;;;;;;;3.94;100.00;102481.25;5051149;28;21646;-77
2023/01/03 11:37:17;;;;;;;;;;;;;;;3.97;100.00;102479.56;5069100;28;19966;-77
2023/01/03 11:39:47;;;;;;;;;;;;;;;3.99;100.00;102483.06;5068639;28;20227;-76
2023/01/03 11:42:28;;;;;;;;;;;;;;;4.03;100.00;102477.00;5052225;28;19936;-77
2023/01/03 11:45:04;;;;;;;;;;;;;;;4.06;100.00;102477.88;5069442;28;19958;-77
2023/01/03 11:47:39;;;;;;;;;;;;;;;4.08;100.00;102476.16;5053559;28;19913;-77
2023/01/03 11:50:14;;;;;;;;;;;;;;;4.11;100.00;102467.44;5068734;28;19928;-77
2023/01/03 11:52:45;;;;;;;;;;;;;;;4.15;100.00;102461.31;5052088;28;20318;-77
2023/01/03 11:55:13;;;;;;;;;;;;;;;4.19;100.00;102456.97;5070855;28;19928;-77
2023/01/03 11:57:42;;;;;;;;;;;;;;;4.23;100.00;102455.28;5070820;28;19942;-77
2023/01/03 12:00:08;;;;;;;;;;;;;;;4.26;100.00;102447.44;5044432;28;20386;-77
2023/01/03 12:02:52;;;;;;;;;;;;;;;4.30;100.00;102457.09;5074907;28;19935;-77
2023/01/03 12:05:36;;;;;;;;;;;;;;;4.34;100.00;102450.97;5072236;28;20014;-78
2023/01/03 12:08:05;;;;;;;;;;;;;;;4.37;100.00;102432.66;5057268;27;20255;-77
2023/01/03 12:10:53;;;;;;;;;;;;;;;4.40;100.00;102439.66;5061682;28;20271;-76
2023/01/03 12:13:39;;;;;;;;;;;;;;;4.41;100.00;102430.94;5054317;28;20056;-77
2023/01/03 12:16:04;;;;;;;;;;;;;;;4.45;100.00;102430.94;5011766;28;19928;-76
2023/01/03 12:18:47;;;;;;;;;;;;;;;4.48;100.00;102432.72;5076747;28;19928;-77
2023/01/03 12:21:14;;;;;;;;;;;;;;;4.52;100.00;102425.75;5077986;28;19932;-77
2023/01/03 12:23:44;;;;;;;;;;;;;;;4.54;100.00;102418.75;5058350;28;20854;-77
2023/01/03 12:26:11;;;;;;;;;;;;;;;4.57;100.00;102418.78;5048983;28;19932;-76
2023/01/03 12:28:46;;;;;;;;;;;;;;;4.61;100.00;102417.91;5040274;28;19927;-77
2023/01/03 12:31:31;;;;;;;;;;;;;;;4.65;100.00;102418.78;5076174;28;19928;-77
2023/01/03 12:34:16;;;;;;;;;;;;;;;4.67;100.00;102412.69;5075749;28;19931;-77
2023/01/03 12:36:44;;;;;;;;;;;;;;;4.70;100.00;102406.56;5080242;28;19932;-77
2023/01/03 12:39:27;;;;;;;;;;;;;;;4.73;100.00;102410.09;5043419;28;19928;-77
2023/01/03 12:42:02;;;;;;;;;;;;;;;4.77;100.00;102410.97;5075965;28;19931;-77
2023/01/03 12:44:41;;;;;;;;;;;;;;;4.82;100.00;102400.50;5058051;28;20016;-78
2023/01/03 12:47:10;;;;;;;;;;;;;;;4.85;100.00;102401.38;5074989;28;19975;-78
2023/01/03 12:50:01;;;;;;;;;;;;;;;4.86;100.00;102392.63;5055049;28;19939;-76
2023/01/03 12:52:27;;;;;;;;;;;;;;;4.91;100.00;102386.53;5067590;27;19935;-76
2023/01/03 12:54:55;;;;;;;;;;;;;;;4.92;100.00;102386.53;5042252;28;19932;-76
2023/01/03 12:57:36;;;;;;;;;;;;;;;4.95;100.00;102381.28;5060473;28;19935;-76
2023/01/03 13:00:07;;;;;;;;;;;;;;;4.96;100.00;102380.41;5076554;28;19928;-76
2023/01/03 13:02:37;;;;;;;;;;;;;;;5.01;100.00;102372.56;5059075;28;19928;-76
2023/01/03 13:05:10;;;;;;;;;;;;;;;5.02;100.00;102375.19;5057534;28;19924;-76
2023/01/03 13:07:36;;;;;;;;;;;;;;;5.06;100.00;102377.84;5056552;28;20789;-76
2023/01/03 13:10:11;;;;;;;;;;;;;;;5.06;100.00;102365.56;5077605;28;19988;-76
2023/01/03 13:12:37;;;;;;;;;;;;;;;5.09;100.00;102364.69;5056951;28;20454;-76
2023/01/03 13:15:02;;;;;;;;;;;;;;;5.11;100.00;102365.56;5056936;28;19927;-76
2023/01/03 13:17:29;;;;;;;;;;;;;;;5.14;100.00;102368.22;5055960;28;19924;-78
2023/01/03 13:19:55;;;;;;;;;;;;;;;5.16;100.00;102374.34;5060051;28;20404;-76
2023/01/03 13:22:25;;;;;;;;;;;;;;;5.18;100.00;102372.63;5058673;28;20189;-76
2023/01/03 13:24:50;;;;;;;;;;;;;;;5.21;100.00;102364.72;5060372;28;20478;-76
2023/01/03 13:27:16;;;;;;;;;;;;;;;5.22;100.00;102366.47;5060784;28;19993;-76
2023/01/03 13:29:49;;;;;;;;;;;;;;;5.26;100.00;102363.00;5090239;28;19935;-76
2023/01/03 13:32:21;;;;;;;;;;;;;;;5.29;100.00;102383.13;5088021;28;20498;-77
2023/01/03 13:35:10;;;;;;;;;;;;;;;5.29;100.00;102368.22;5079058;28;19928;-76